sensor_id;sensor_type;location;lat;lon;timestamp;temperature;humidity
65573;SHT30;52214;50.940;13.996;2023-03-04T00:01:04;4.36;91.06
65573;SHT30;52214;50.940;13.996;2023-03-04T00:03:30;4.34;91.08
65573;SHT30;52214;50.940;13.996;2023-03-04T00:05:56;4.32;91.04
65573;SHT30;52214;50.940;13.996;2023-03-04T00:08:21;4.35;91.09
65573;SHT30;52214;50.940;13.996;2023-03-04T00:10:47;4.35;91.05
65573;SHT30;52214;50.940;13.996;2023-03-04T00:13:12;4.35;91.06
65573;SHT30;52214;50.940;13.996;2023-03-04T00:15:38;4.35;91.04
65573;SHT30;52214;50.940;13.996;2023-03-04T00:18:04;4.32;91.03
65573;SHT30;52214;50.940;13.996;2023-03-04T00:20:29;4.34;91.06
65573;SHT30;52214;50.940;13.996;2023-03-04T00:22:55;4.35;91.03
65573;SHT30;52214;50.940;13.996;2023-03-04T00:25:21;4.34;91.06
65573;SHT30;52214;50.940;13.996;2023-03-04T00:27:46;4.32;91.02
65573;SHT30;52214;50.940;13.996;2023-03-04T00:30:12;4.29;91.00
65573;SHT30;52214;50.940;13.996;2023-03-04T00:32:38;4.34;91.00
65573;SHT30;52214;50.940;13.996;2023-03-04T00:35:05;4.31;90.99
65573;SHT30;52214;50.940;13.996;2023-03-04T00:37:31;4.31;91.05
65573;SHT30;52214;50.940;13.996;2023-03-04T00:39:57;4.31;91.03
65573;SHT30;52214;50.940;13.996;2023-03-04T00:42:22;4.29;91.05
65573;SHT30;52214;50.940;13.996;2023-03-04T00:44:48;4.31;91.02
65573;SHT30;52214;50.940;13.996;2023-03-04T00:47:13;4.31;91.00
65573;SHT30;52214;50.940;13.996;2023-03-04T00:49:39;4.31;90.98
65573;SHT30;52214;50.940;13.996;2023-03-04T00:52:05;4.29;90.95
65573;SHT30;52214;50.940;13.996;2023-03-04T00:54:30;4.28;91.00
65573;SHT30;52214;50.940;13.996;2023-03-04T00:56:56;4.28;90.97
65573;SHT30;52214;50.940;13.996;2023-03-04T00:59:22;4.31;90.96
65573;SHT30;52214;50.940;13.996;2023-03-04T01:01:47;4.28;90.96
65573;SHT30;52214;50.940;13.996;2023-03-04T01:04:13;4.28;90.96
65573;SHT30;52214;50.940;13.996;2023-03-04T01:06:39;4.28;90.93
65573;SHT30;52214;50.940;13.996;2023-03-04T01:09:04;4.28;90.96
65573;SHT30;52214;50.940;13.996;2023-03-04T01:11:30;4.28;90.92
65573;SHT30;52214;50.940;13.996;2023-03-04T01:13:56;4.28;90.93
65573;SHT30;52214;50.940;13.996;2023-03-04T01:16:21;4.28;90.94
65573;SHT30;52214;50.940;13.996;2023-03-04T01:18:47;4.27;90.96
65573;SHT30;52214;50.940;13.996;2023-03-04T01:21:13;4.25;90.95
65573;SHT30;52214;50.940;13.996;2023-03-04T01:23:38;4.27;90.87
65573;SHT30;52214;50.940;13.996;2023-03-04T01:26:04;4.24;90.91
65573;SHT30;52214;50.940;13.996;2023-03-04T01:28:30;4.27;90.94
65573;SHT30;52214;50.940;13.996;2023-03-04T01:31:00;4.27;90.88
65573;SHT30;52214;50.940;13.996;2023-03-04T01:33:26;4.27;90.87
65573;SHT30;52214;50.940;13.996;2023-03-04T01:35:51;4.27;90.88
65573;SHT30;52214;50.940;13.996;2023-03-04T01:38:17;4.24;90.88
65573;SHT30;52214;50.940;13.996;2023-03-04T01:40:43;4.27;90.89
65573;SHT30;52214;50.940;13.996;2023-03-04T01:43:15;4.25;90.86
65573;SHT30;52214;50.940;13.996;2023-03-04T01:45:44;4.27;90.85
65573;SHT30;52214;50.940;13.996;2023-03-04T01:48:13;4.25;90.89
65573;SHT30;52214;50.940;13.996;2023-03-04T01:50:41;4.24;90.86
65573;SHT30;52214;50.940;13.996;2023-03-04T01:53:18;4.22;90.85
65573;SHT30;52214;50.940;13.996;2023-03-04T01:55:45;4.21;90.93
65573;SHT30;52214;50.940;13.996;2023-03-04T01:58:11;4.21;90.87
65573;SHT30;52214;50.940;13.996;2023-03-04T02:00:38;4.22;90.87
65573;SHT30;52214;50.940;13.996;2023-03-04T02:03:08;4.21;90.91
65573;SHT30;52214;50.940;13.996;2023-03-04T02:05:38;4.24;90.88
65573;SHT30;52214;50.940;13.996;2023-03-04T02:08:05;4.21;90.88
65573;SHT30;52214;50.940;13.996;2023-03-04T02:10:32;4.25;90.84
65573;SHT30;52214;50.940;13.996;2023-03-04T02:12:59;4.24;90.92
65573;SHT30;52214;50.940;13.996;2023-03-04T02:15:25;4.21;90.86
65573;SHT30;52214;50.940;13.996;2023-03-04T02:17:51;4.24;90.88
65573;SHT30;52214;50.940;13.996;2023-03-04T02:20:40;4.21;90.82
65573;SHT30;52214;50.940;13.996;2023-03-04T02:28:39;4.24;90.86
65573;SHT30;52214;50.940;13.996;2023-03-04T02:31:05;4.21;90.88
65573;SHT30;52214;50.940;13.996;2023-03-04T02:33:31;4.22;90.87
65573;SHT30;52214;50.940;13.996;2023-03-04T02:35:58;4.19;90.88
65573;SHT30;52214;50.940;13.996;2023-03-04T02:38:24;4.24;90.87
65573;SHT30;52214;50.940;13.996;2023-03-04T02:40:50;4.22;90.83
65573;SHT30;52214;50.940;13.996;2023-03-04T02:43:18;4.22;90.83
65573;SHT30;52214;50.940;13.996;2023-03-04T02:45:46;4.19;90.83
65573;SHT30;52214;50.940;13.996;2023-03-04T02:48:16;4.22;90.86
65573;SHT30;52214;50.940;13.996;2023-03-04T02:50:48;4.22;90.84
65573;SHT30;52214;50.940;13.996;2023-03-04T02:53:15;4.21;90.85
65573;SHT30;52214;50.940;13.996;2023-03-04T02:55:41;4.21;90.86
65573;SHT30;52214;50.940;13.996;2023-03-04T02:58:08;4.24;90.94
65573;SHT30;52214;50.940;13.996;2023-03-04T03:00:35;4.21;90.92
65573;SHT30;52214;50.940;13.996;2023-03-04T03:03:01;4.21;90.83
65573;SHT30;52214;50.940;13.996;2023-03-04T03:05:30;4.18;90.88
65573;SHT30;52214;50.940;13.996;2023-03-04T03:07:56;4.22;90.85
65573;SHT30;52214;50.940;13.996;2023-03-04T03:10:22;4.21;90.85
65573;SHT30;52214;50.940;13.996;2023-03-04T03:12:47;4.19;90.84
65573;SHT30;52214;50.940;13.996;2023-03-04T03:15:13;4.19;90.83
65573;SHT30;52214;50.940;13.996;2023-03-04T03:17:39;4.19;90.81
65573;SHT30;52214;50.940;13.996;2023-03-04T03:20:06;4.18;90.87
65573;SHT30;52214;50.940;13.996;2023-03-04T03:22:32;4.19;90.83
65573;SHT30;52214;50.940;13.996;2023-03-04T03:24:57;4.21;90.83
65573;SHT30;52214;50.940;13.996;2023-03-04T03:27:23;4.21;90.82
65573;SHT30;52214;50.940;13.996;2023-03-04T03:29:49;4.19;90.84
65573;SHT30;52214;50.940;13.996;2023-03-04T03:32:14;4.19;90.85
65573;SHT30;52214;50.940;13.996;2023-03-04T03:34:40;4.21;90.82
65573;SHT30;52214;50.940;13.996;2023-03-04T03:37:06;4.21;90.86
65573;SHT30;52214;50.940;13.996;2023-03-04T03:39:31;4.22;90.86
65573;SHT30;52214;50.940;13.996;2023-03-04T03:41:57;4.21;90.82
65573;SHT30;52214;50.940;13.996;2023-03-04T03:44:22;4.22;90.80
65573;SHT30;52214;50.940;13.996;2023-03-04T03:46:48;4.21;90.86
65573;SHT30;52214;50.940;13.996;2023-03-04T03:49:13;4.22;90.84
65573;SHT30;52214;50.940;13.996;2023-03-04T03:51:40;4.22;90.84
65573;SHT30;52214;50.940;13.996;2023-03-04T03:54:06;4.24;90.76
65573;SHT30;52214;50.940;13.996;2023-03-04T03:56:32;4.22;90.84
65573;SHT30;52214;50.940;13.996;2023-03-04T03:58:57;4.21;90.82
65573;SHT30;52214;50.940;13.996;2023-03-04T04:01:24;4.22;90.82
65573;SHT30;52214;50.940;13.996;2023-03-04T04:03:49;4.21;90.80
65573;SHT30;52214;50.940;13.996;2023-03-04T04:06:15;4.21;90.81
65573;SHT30;52214;50.940;13.996;2023-03-04T04:08:41;4.24;90.75
65573;SHT30;52214;50.940;13.996;2023-03-04T04:11:09;4.21;90.80
65573;SHT30;52214;50.940;13.996;2023-03-04T04:13:34;4.19;90.76
65573;SHT30;52214;50.940;13.996;2023-03-04T04:16:00;4.24;90.80
65573;SHT30;52214;50.940;13.996;2023-03-04T04:18:26;4.22;90.80
65573;SHT30;52214;50.940;13.996;2023-03-04T04:20:52;4.24;90.79
65573;SHT30;52214;50.940;13.996;2023-03-04T04:23:17;4.22;90.78
65573;SHT30;52214;50.940;13.996;2023-03-04T04:25:43;4.22;90.82
65573;SHT30;52214;50.940;13.996;2023-03-04T04:28:09;4.24;90.76
65573;SHT30;52214;50.940;13.996;2023-03-04T04:30:34;4.27;90.75
65573;SHT30;52214;50.940;13.996;2023-03-04T04:33:03;4.22;90.78
65573;SHT30;52214;50.940;13.996;2023-03-04T04:35:31;4.24;90.77
65573;SHT30;52214;50.940;13.996;2023-03-04T04:37:57;4.27;90.74
65573;SHT30;52214;50.940;13.996;2023-03-04T04:40:23;4.24;90.75
65573;SHT30;52214;50.940;13.996;2023-03-04T04:42:49;4.27;90.80
65573;SHT30;52214;50.940;13.996;2023-03-04T04:45:17;4.24;90.77
65573;SHT30;52214;50.940;13.996;2023-03-04T04:47:43;4.24;90.76
65573;SHT30;52214;50.940;13.996;2023-03-04T04:50:09;4.22;90.76
65573;SHT30;52214;50.940;13.996;2023-03-04T04:52:35;4.24;90.74
65573;SHT30;52214;50.940;13.996;2023-03-04T04:55:01;4.24;90.74
65573;SHT30;52214;50.940;13.996;2023-03-04T04:57:27;4.24;90.78
65573;SHT30;52214;50.940;13.996;2023-03-04T04:59:52;4.25;90.72
65573;SHT30;52214;50.940;13.996;2023-03-04T05:02:19;4.25;90.75
65573;SHT30;52214;50.940;13.996;2023-03-04T05:04:45;4.25;90.80
65573;SHT30;52214;50.940;13.996;2023-03-04T05:07:10;4.24;90.79
65573;SHT30;52214;50.940;13.996;2023-03-04T05:09:36;4.22;90.79
65573;SHT30;52214;50.940;13.996;2023-03-04T05:12:02;4.25;90.78
65573;SHT30;52214;50.940;13.996;2023-03-04T05:14:27;4.25;90.81
65573;SHT30;52214;50.940;13.996;2023-03-04T05:16:53;4.27;90.83
65573;SHT30;52214;50.940;13.996;2023-03-04T05:19:19;4.25;90.80
65573;SHT30;52214;50.940;13.996;2023-03-04T05:21:45;4.27;90.80
65573;SHT30;52214;50.940;13.996;2023-03-04T05:24:12;4.25;90.80
65573;SHT30;52214;50.940;13.996;2023-03-04T05:26:37;4.25;90.83
65573;SHT30;52214;50.940;13.996;2023-03-04T05:29:03;4.27;90.85
65573;SHT30;52214;50.940;13.996;2023-03-04T05:31:29;4.25;90.84
65573;SHT30;52214;50.940;13.996;2023-03-04T05:33:55;4.25;90.82
65573;SHT30;52214;50.940;13.996;2023-03-04T05:36:20;4.27;90.85
65573;SHT30;52214;50.940;13.996;2023-03-04T05:38:46;4.27;90.81
65573;SHT30;52214;50.940;13.996;2023-03-04T05:41:12;4.27;90.84
65573;SHT30;52214;50.940;13.996;2023-03-04T05:43:37;4.27;90.80
65573;SHT30;52214;50.940;13.996;2023-03-04T05:46:08;4.27;90.80
65573;SHT30;52214;50.940;13.996;2023-03-04T05:48:36;4.22;90.79
65573;SHT30;52214;50.940;13.996;2023-03-04T05:51:02;4.25;90.83
65573;SHT30;52214;50.940;13.996;2023-03-04T05:53:28;4.27;90.82
65573;SHT30;52214;50.940;13.996;2023-03-04T05:55:54;4.27;90.86
65573;SHT30;52214;50.940;13.996;2023-03-04T05:58:20;4.29;90.86
65573;SHT30;52214;50.940;13.996;2023-03-04T06:00:46;4.28;90.89
65573;SHT30;52214;50.940;13.996;2023-03-04T06:03:17;4.28;90.89
65573;SHT30;52214;50.940;13.996;2023-03-04T06:05:43;4.25;90.86
65573;SHT30;52214;50.940;13.996;2023-03-04T06:08:10;4.27;90.87
65573;SHT30;52214;50.940;13.996;2023-03-04T06:10:37;4.29;90.90
65573;SHT30;52214;50.940;13.996;2023-03-04T06:13:03;4.28;90.87
65573;SHT30;52214;50.940;13.996;2023-03-04T06:15:28;4.28;90.91
65573;SHT30;52214;50.940;13.996;2023-03-04T06:17:55;4.28;90.85
65573;SHT30;52214;50.940;13.996;2023-03-04T06:20:21;4.29;90.89
65573;SHT30;52214;50.940;13.996;2023-03-04T06:22:46;4.28;90.85
65573;SHT30;52214;50.940;13.996;2023-03-04T06:25:12;4.29;90.91
65573;SHT30;52214;50.940;13.996;2023-03-04T06:27:38;4.29;90.90
65573;SHT30;52214;50.940;13.996;2023-03-04T06:30:04;4.29;90.92
65573;SHT30;52214;50.940;13.996;2023-03-04T06:32:30;4.29;90.87
65573;SHT30;52214;50.940;13.996;2023-03-04T06:34:56;4.31;90.90
65573;SHT30;52214;50.940;13.996;2023-03-04T06:37:21;4.28;90.88
65573;SHT30;52214;50.940;13.996;2023-03-04T06:39:47;4.29;90.87
65573;SHT30;52214;50.940;13.996;2023-03-04T06:42:13;4.31;90.88
65573;SHT30;52214;50.940;13.996;2023-03-04T06:44:39;4.28;90.92
65573;SHT30;52214;50.940;13.996;2023-03-04T06:47:05;4.31;90.93
65573;SHT30;52214;50.940;13.996;2023-03-04T06:49:31;4.31;90.90
65573;SHT30;52214;50.940;13.996;2023-03-04T06:51:57;4.31;90.86
65573;SHT30;52214;50.940;13.996;2023-03-04T06:54:23;4.29;90.90
65573;SHT30;52214;50.940;13.996;2023-03-04T06:56:49;4.31;90.86
65573;SHT30;52214;50.940;13.996;2023-03-04T06:59:15;4.29;90.91
65573;SHT30;52214;50.940;13.996;2023-03-04T07:01:40;4.31;90.88
65573;SHT30;52214;50.940;13.996;2023-03-04T07:04:06;4.29;90.91
65573;SHT30;52214;50.940;13.996;2023-03-04T07:06:32;4.31;90.92
65573;SHT30;52214;50.940;13.996;2023-03-04T07:08:58;4.31;90.93
65573;SHT30;52214;50.940;13.996;2023-03-04T07:11:24;4.34;90.90
65573;SHT30;52214;50.940;13.996;2023-03-04T07:13:51;4.32;90.90
65573;SHT30;52214;50.940;13.996;2023-03-04T07:16:20;4.32;90.89
65573;SHT30;52214;50.940;13.996;2023-03-04T07:18:47;4.32;90.89
65573;SHT30;52214;50.940;13.996;2023-03-04T07:21:13;4.34;90.92
65573;SHT30;52214;50.940;13.996;2023-03-04T07:23:40;4.32;90.92
65573;SHT30;52214;50.940;13.996;2023-03-04T07:26:06;4.34;90.92
65573;SHT30;52214;50.940;13.996;2023-03-04T07:28:32;4.35;90.92
65573;SHT30;52214;50.940;13.996;2023-03-04T07:31:18;4.32;90.88
65573;SHT30;52214;50.940;13.996;2023-03-04T07:33:44;4.35;90.88
65573;SHT30;52214;50.940;13.996;2023-03-04T07:36:10;4.34;90.92
65573;SHT30;52214;50.940;13.996;2023-03-04T07:38:43;4.35;90.93
65573;SHT30;52214;50.940;13.996;2023-03-04T07:41:09;4.35;90.91
65573;SHT30;52214;50.940;13.996;2023-03-04T07:43:35;4.34;90.93
65573;SHT30;52214;50.940;13.996;2023-03-04T07:46:01;4.35;90.95
65573;SHT30;52214;50.940;13.996;2023-03-04T07:48:26;4.38;90.92
65573;SHT30;52214;50.940;13.996;2023-03-04T07:51:13;4.38;90.93
65573;SHT30;52214;50.940;13.996;2023-03-04T07:56:10;4.36;90.93
65573;SHT30;52214;50.940;13.996;2023-03-04T07:58:36;4.38;90.93
65573;SHT30;52214;50.940;13.996;2023-03-04T08:01:11;4.36;90.93
65573;SHT30;52214;50.940;13.996;2023-03-04T08:03:40;4.35;90.94
65573;SHT30;52214;50.940;13.996;2023-03-04T08:06:09;4.38;90.95
65573;SHT30;52214;50.940;13.996;2023-03-04T08:08:35;4.38;90.91
65573;SHT30;52214;50.940;13.996;2023-03-04T08:11:05;4.39;90.95
65573;SHT30;52214;50.940;13.996;2023-03-04T08:13:30;4.38;90.93
65573;SHT30;52214;50.940;13.996;2023-03-04T08:15:56;4.39;90.95
65573;SHT30;52214;50.940;13.996;2023-03-04T08:18:22;4.38;90.96
65573;SHT30;52214;50.940;13.996;2023-03-04T08:20:48;4.38;90.94
65573;SHT30;52214;50.940;13.996;2023-03-04T08:23:13;4.38;90.93
65573;SHT30;52214;50.940;13.996;2023-03-04T08:25:41;4.38;90.96
65573;SHT30;52214;50.940;13.996;2023-03-04T08:28:08;4.41;90.96
65573;SHT30;52214;50.940;13.996;2023-03-04T08:30:34;4.39;90.96
65573;SHT30;52214;50.940;13.996;2023-03-04T08:33:02;4.41;90.94
65573;SHT30;52214;50.940;13.996;2023-03-04T08:35:28;4.41;90.93
65573;SHT30;52214;50.940;13.996;2023-03-04T08:37:55;4.44;90.93
65573;SHT30;52214;50.940;13.996;2023-03-04T08:40:21;4.42;90.93
65573;SHT30;52214;50.940;13.996;2023-03-04T08:42:47;4.42;90.93
65573;SHT30;52214;50.940;13.996;2023-03-04T08:45:12;4.42;90.90
65573;SHT30;52214;50.940;13.996;2023-03-04T08:47:38;4.41;90.89
65573;SHT30;52214;50.940;13.996;2023-03-04T08:50:07;4.42;90.92
65573;SHT30;52214;50.940;13.996;2023-03-04T08:52:33;4.42;90.92
65573;SHT30;52214;50.940;13.996;2023-03-04T08:55:00;4.44;90.93
65573;SHT30;52214;50.940;13.996;2023-03-04T08:57:26;4.44;90.91
65573;SHT30;52214;50.940;13.996;2023-03-04T08:59:51;4.45;90.91
65573;SHT30;52214;50.940;13.996;2023-03-04T09:02:17;4.44;90.92
65573;SHT30;52214;50.940;13.996;2023-03-04T09:04:42;4.45;90.92
65573;SHT30;52214;50.940;13.996;2023-03-04T09:07:08;4.44;90.90
65573;SHT30;52214;50.940;13.996;2023-03-04T09:09:34;4.45;90.90
65573;SHT30;52214;50.940;13.996;2023-03-04T09:12:00;4.45;90.90
65573;SHT30;52214;50.940;13.996;2023-03-04T09:14:25;4.46;90.87
65573;SHT30;52214;50.940;13.996;2023-03-04T09:16:51;4.45;90.89
65573;SHT30;52214;50.940;13.996;2023-03-04T09:19:16;4.49;90.89
65573;SHT30;52214;50.940;13.996;2023-03-04T09:21:42;4.46;90.91
65573;SHT30;52214;50.940;13.996;2023-03-04T09:24:08;4.48;90.91
65573;SHT30;52214;50.940;13.996;2023-03-04T09:26:33;4.48;90.87
65573;SHT30;52214;50.940;13.996;2023-03-04T09:29:00;4.46;90.87
65573;SHT30;52214;50.940;13.996;2023-03-04T09:31:27;4.48;90.85
65573;SHT30;52214;50.940;13.996;2023-03-04T09:33:54;4.48;90.87
65573;SHT30;52214;50.940;13.996;2023-03-04T09:36:22;4.49;90.86
65573;SHT30;52214;50.940;13.996;2023-03-04T09:38:48;4.49;90.85
65573;SHT30;52214;50.940;13.996;2023-03-04T09:41:18;4.50;90.82
65573;SHT30;52214;50.940;13.996;2023-03-04T09:43:47;4.52;90.81
65573;SHT30;52214;50.940;13.996;2023-03-04T09:46:18;4.52;90.82
65573;SHT30;52214;50.940;13.996;2023-03-04T09:48:50;4.55;90.80
65573;SHT30;52214;50.940;13.996;2023-03-04T09:56:34;4.55;90.78
65573;SHT30;52214;50.940;13.996;2023-03-04T10:01:41;4.56;90.71
65573;SHT30;52214;50.940;13.996;2023-03-04T10:04:39;4.57;90.71
65573;SHT30;52214;50.940;13.996;2023-03-04T10:09:52;4.57;90.75
65573;SHT30;52214;50.940;13.996;2023-03-04T10:12:23;4.59;90.76
65573;SHT30;52214;50.940;13.996;2023-03-04T10:15:06;4.60;90.73
65573;SHT30;52214;50.940;13.996;2023-03-04T10:17:44;4.62;90.68
65573;SHT30;52214;50.940;13.996;2023-03-04T10:20:18;4.62;90.68
65573;SHT30;52214;50.940;13.996;2023-03-04T10:22:49;4.62;90.71
65573;SHT30;52214;50.940;13.996;2023-03-04T10:25:25;4.62;90.72
65573;SHT30;52214;50.940;13.996;2023-03-04T10:27:56;4.63;90.65
65573;SHT30;52214;50.940;13.996;2023-03-04T10:35:42;4.63;90.66
65573;SHT30;52214;50.940;13.996;2023-03-04T10:38:11;4.64;90.64
65573;SHT30;52214;50.940;13.996;2023-03-04T10:40:40;4.64;90.61
65573;SHT30;52214;50.940;13.996;2023-03-04T10:43:14;4.63;90.73
65573;SHT30;52214;50.940;13.996;2023-03-04T10:45:40;4.63;90.71
65573;SHT30;52214;50.940;13.996;2023-03-04T10:48:18;4.64;90.68
65573;SHT30;52214;50.940;13.996;2023-03-04T10:50:44;4.66;90.62
65573;SHT30;52214;50.940;13.996;2023-03-04T10:53:27;4.69;90.61
65573;SHT30;52214;50.940;13.996;2023-03-04T10:55:54;4.67;90.56
65573;SHT30;52214;50.940;13.996;2023-03-04T10:58:20;4.69;90.55
65573;SHT30;52214;50.940;13.996;2023-03-04T11:00:58;4.70;90.49
65573;SHT30;52214;50.940;13.996;2023-03-04T11:03:32;4.72;90.45
65573;SHT30;52214;50.940;13.996;2023-03-04T11:06:19;4.76;90.46
65573;SHT30;52214;50.940;13.996;2023-03-04T11:11:24;4.85;90.36
65573;SHT30;52214;50.940;13.996;2023-03-04T11:13:54;4.90;90.28
65573;SHT30;52214;50.940;13.996;2023-03-04T11:16:26;4.92;90.27
65573;SHT30;52214;50.940;13.996;2023-03-04T11:18:54;4.94;90.18
65573;SHT30;52214;50.940;13.996;2023-03-04T11:21:25;4.97;90.19
65573;SHT30;52214;50.940;13.996;2023-03-04T11:24:03;4.95;90.21
65573;SHT30;52214;50.940;13.996;2023-03-04T11:26:38;5.00;90.17
65573;SHT30;52214;50.940;13.996;2023-03-04T11:34:40;4.92;90.30
65573;SHT30;52214;50.940;13.996;2023-03-04T11:37:26;4.95;90.38
65573;SHT30;52214;50.940;13.996;2023-03-04T11:40:17;4.92;90.40
65573;SHT30;52214;50.940;13.996;2023-03-04T11:51:17;5.02;90.38
65573;SHT30;52214;50.940;13.996;2023-03-04T11:56:30;5.12;90.24
65573;SHT30;52214;50.940;13.996;2023-03-04T11:59:27;5.15;90.17
65573;SHT30;52214;50.940;13.996;2023-03-04T12:02:19;5.18;90.12
65573;SHT30;52214;50.940;13.996;2023-03-04T12:04:54;5.21;90.09
65573;SHT30;52214;50.940;13.996;2023-03-04T12:07:42;5.21;90.07
65573;SHT30;52214;50.940;13.996;2023-03-04T12:18:30;5.32;90.06
65573;SHT30;52214;50.940;13.996;2023-03-04T12:21:13;5.38;90.00
65573;SHT30;52214;50.940;13.996;2023-03-04T12:23:58;5.36;90.03
65573;SHT30;52214;50.940;13.996;2023-03-04T12:26:50;5.40;90.00
65573;SHT30;52214;50.940;13.996;2023-03-04T12:38:16;5.46;90.16
65573;SHT30;52214;50.940;13.996;2023-03-04T12:44:05;5.50;90.26
65573;SHT30;52214;50.940;13.996;2023-03-04T12:46:36;5.55;90.28
65573;SHT30;52214;50.940;13.996;2023-03-04T12:57:24;5.59;90.42
65573;SHT30;52214;50.940;13.996;2023-03-04T13:03:23;5.62;90.40
65573;SHT30;52214;50.940;13.996;2023-03-04T13:06:13;5.63;90.41
65573;SHT30;52214;50.940;13.996;2023-03-04T13:14:21;5.67;90.60
65573;SHT30;52214;50.940;13.996;2023-03-04T13:16:49;5.70;90.60
65573;SHT30;52214;50.940;13.996;2023-03-04T13:25:02;5.71;90.66
65573;SHT30;52214;50.940;13.996;2023-03-04T13:27:50;5.74;90.69
65573;SHT30;52214;50.940;13.996;2023-03-04T13:35:58;5.77;90.80
65573;SHT30;52214;50.940;13.996;2023-03-04T13:38:41;5.80;90.76
65573;SHT30;52214;50.940;13.996;2023-03-04T13:41:23;5.80;90.80
65573;SHT30;52214;50.940;13.996;2023-03-04T13:43:57;5.83;90.83
65573;SHT30;52214;50.940;13.996;2023-03-04T13:46:40;5.83;90.87
65573;SHT30;52214;50.940;13.996;2023-03-04T13:49:16;5.84;90.94
65573;SHT30;52214;50.940;13.996;2023-03-04T13:51:44;5.83;90.92
65573;SHT30;52214;50.940;13.996;2023-03-04T13:57:10;5.91;90.83
65573;SHT30;52214;50.940;13.996;2023-03-04T13:59:45;5.94;90.80
65573;SHT30;52214;50.940;13.996;2023-03-04T14:02:16;5.94;90.72
65573;SHT30;52214;50.940;13.996;2023-03-04T14:04:55;5.98;90.68
65573;SHT30;52214;50.940;13.996;2023-03-04T14:07:27;6.00;90.63
65573;SHT30;52214;50.940;13.996;2023-03-04T14:09:55;6.02;90.58
65573;SHT30;52214;50.940;13.996;2023-03-04T14:12:21;6.02;90.52
65573;SHT30;52214;50.940;13.996;2023-03-04T14:14:54;6.08;90.47
65573;SHT30;52214;50.940;13.996;2023-03-04T14:17:24;6.11;90.45
65573;SHT30;52214;50.940;13.996;2023-03-04T14:19:51;6.14;90.45
65573;SHT30;52214;50.940;13.996;2023-03-04T14:22:33;6.17;90.24
65573;SHT30;52214;50.940;13.996;2023-03-04T14:25:30;6.19;90.13
65573;SHT30;52214;50.940;13.996;2023-03-04T14:28:10;6.21;90.03
65573;SHT30;52214;50.940;13.996;2023-03-04T14:30:36;6.22;90.04
65573;SHT30;52214;50.940;13.996;2023-03-04T14:33:06;6.26;89.97
65573;SHT30;52214;50.940;13.996;2023-03-04T14:35:34;6.32;89.87
65573;SHT30;52214;50.940;13.996;2023-03-04T14:38:01;6.32;89.85
65573;SHT30;52214;50.940;13.996;2023-03-04T14:40:31;6.36;89.76
65573;SHT30;52214;50.940;13.996;2023-03-04T14:43:04;6.39;89.68
65573;SHT30;52214;50.940;13.996;2023-03-04T14:45:31;6.42;89.64
65573;SHT30;52214;50.940;13.996;2023-03-04T14:48:03;6.46;89.57
65573;SHT30;52214;50.940;13.996;2023-03-04T14:50:30;6.50;89.46
65573;SHT30;52214;50.940;13.996;2023-03-04T14:53:13;6.53;89.35
65573;SHT30;52214;50.940;13.996;2023-03-04T14:55:38;6.57;89.28
65573;SHT30;52214;50.940;13.996;2023-03-04T14:58:08;6.60;89.19
65573;SHT30;52214;50.940;13.996;2023-03-04T15:00:36;6.63;89.04
65573;SHT30;52214;50.940;13.996;2023-03-04T15:03:21;6.66;88.99
65573;SHT30;52214;50.940;13.996;2023-03-04T15:05:47;6.64;88.91
65573;SHT30;52214;50.940;13.996;2023-03-04T15:08:20;6.69;88.84
65573;SHT30;52214;50.940;13.996;2023-03-04T15:11:04;6.70;88.75
65573;SHT30;52214;50.940;13.996;2023-03-04T15:13:48;6.69;88.82
65573;SHT30;52214;50.940;13.996;2023-03-04T15:16:16;6.66;88.80
65573;SHT30;52214;50.940;13.996;2023-03-04T15:19:04;6.62;88.80
65573;SHT30;52214;50.940;13.996;2023-03-04T15:24:02;6.56;89.01
65573;SHT30;52214;50.940;13.996;2023-03-04T15:26:30;6.50;89.09
65573;SHT30;52214;50.940;13.996;2023-03-04T15:28:57;6.49;89.22
65573;SHT30;52214;50.940;13.996;2023-03-04T15:31:24;6.45;89.29
65573;SHT30;52214;50.940;13.996;2023-03-04T15:33:51;6.45;89.37
65573;SHT30;52214;50.940;13.996;2023-03-04T15:36:19;6.40;89.39
65573;SHT30;52214;50.940;13.996;2023-03-04T15:38:51;6.38;89.46
65573;SHT30;52214;50.940;13.996;2023-03-04T15:41:23;6.36;89.52
65573;SHT30;52214;50.940;13.996;2023-03-04T15:43:50;6.36;89.53
65573;SHT30;52214;50.940;13.996;2023-03-04T15:46:16;6.33;89.55
65573;SHT30;52214;50.940;13.996;2023-03-04T15:48:42;6.35;89.55
65573;SHT30;52214;50.940;13.996;2023-03-04T15:51:18;6.33;89.57
65573;SHT30;52214;50.940;13.996;2023-03-04T15:53:48;6.29;89.57
65573;SHT30;52214;50.940;13.996;2023-03-04T15:56:18;6.32;89.59
65573;SHT30;52214;50.940;13.996;2023-03-04T15:58:51;6.30;89.58
65573;SHT30;52214;50.940;13.996;2023-03-04T16:01:18;6.28;89.61
65573;SHT30;52214;50.940;13.996;2023-03-04T16:03:43;6.26;89.60
65573;SHT30;52214;50.940;13.996;2023-03-04T16:06:11;6.28;89.64
65573;SHT30;52214;50.940;13.996;2023-03-04T16:08:38;6.26;89.63
65573;SHT30;52214;50.940;13.996;2023-03-04T16:11:05;6.25;89.66
65573;SHT30;52214;50.940;13.996;2023-03-04T16:13:31;6.25;89.69
65573;SHT30;52214;50.940;13.996;2023-03-04T16:15:56;6.22;89.73
65573;SHT30;52214;50.940;13.996;2023-03-04T16:18:22;6.22;89.73
65573;SHT30;52214;50.940;13.996;2023-03-04T16:20:49;6.19;89.77
65573;SHT30;52214;50.940;13.996;2023-03-04T16:23:22;6.21;89.74
65573;SHT30;52214;50.940;13.996;2023-03-04T16:25:50;6.19;89.79
65573;SHT30;52214;50.940;13.996;2023-03-04T16:28:16;6.17;89.84
65573;SHT30;52214;50.940;13.996;2023-03-04T16:30:42;6.18;89.82
65573;SHT30;52214;50.940;13.996;2023-03-04T16:33:08;6.19;89.83
65573;SHT30;52214;50.940;13.996;2023-03-04T16:35:36;6.18;89.87
65573;SHT30;52214;50.940;13.996;2023-03-04T16:38:04;6.17;89.88
65573;SHT30;52214;50.940;13.996;2023-03-04T16:40:30;6.15;89.89
65573;SHT30;52214;50.940;13.996;2023-03-04T16:42:56;6.15;89.85
65573;SHT30;52214;50.940;13.996;2023-03-04T16:45:24;6.17;89.86
65573;SHT30;52214;50.940;13.996;2023-03-04T16:47:51;6.14;89.84
65573;SHT30;52214;50.940;13.996;2023-03-04T16:50:20;6.14;89.80
65573;SHT30;52214;50.940;13.996;2023-03-04T16:52:49;6.14;89.83
65573;SHT30;52214;50.940;13.996;2023-03-04T16:55:17;6.11;89.79
65573;SHT30;52214;50.940;13.996;2023-03-04T16:57:43;6.11;89.87
65573;SHT30;52214;50.940;13.996;2023-03-04T17:00:10;6.10;89.90
65573;SHT30;52214;50.940;13.996;2023-03-04T17:02:37;6.10;89.89
65573;SHT30;52214;50.940;13.996;2023-03-04T17:05:06;6.07;89.91
65573;SHT30;52214;50.940;13.996;2023-03-04T17:07:32;6.07;89.97
65573;SHT30;52214;50.940;13.996;2023-03-04T17:09:58;6.08;89.97
65573;SHT30;52214;50.940;13.996;2023-03-04T17:12:23;6.07;89.99
65573;SHT30;52214;50.940;13.996;2023-03-04T17:14:49;6.05;89.97
65573;SHT30;52214;50.940;13.996;2023-03-04T17:17:14;6.07;90.00